Terminal Aerodrome Forecast
Issued by NWS Atlanta, GA

Home | Current Version | Previous Version | Text Only | Print | Product List | Glossary On
Versions: 1 2 3 4 5 6 7 8 9 10 11 12 13 14 15 16 17 18 19 20 21 22 23 24 25 26 27 28 29 30 31 32 33 34 35 36 37 38
246
FTUS42 KFFC 240748 AAA
TAFATL
TAF AMD
KATL 240748Z 2408/2512 23003KT P6SM BKN120 BKN250
     FM241400 28007KT P6SM FEW040 BKN120
     FM241600 27009KT P6SM VCSH SCT050 PROB30 2417/2423 4SM TSRA
      BKN035CB
     FM250000 27005KT P6SM SCT120 BKN250=

USA.gov is the U.S. government's official web portal to all federal, state and local government web resources and services.